sensor_id;sensor_type;location;lat;lon;timestamp;temperature;humidity
2158;DHT22;41972;48.774;9.282;2023-04-15T00:01:28;3.40;99.90
2158;DHT22;41972;48.774;9.282;2023-04-15T00:03:54;3.30;99.90
2158;DHT22;41972;48.774;9.282;2023-04-15T00:06:21;3.30;99.90
2158;DHT22;41972;48.774;9.282;2023-04-15T00:08:47;3.30;99.90
2158;DHT22;41972;48.774;9.282;2023-04-15T00:11:13;3.30;99.90
2158;DHT22;41972;48.774;9.282;2023-04-15T00:13:39;3.30;99.90
2158;DHT22;41972;48.774;9.282;2023-04-15T00:16:06;3.40;99.90
2158;DHT22;41972;48.774;9.282;2023-04-15T00:18:33;3.40;99.90
2158;DHT22;41972;48.774;9.282;2023-04-15T00:20:59;3.20;99.90
2158;DHT22;41972;48.774;9.282;2023-04-15T00:23:24;3.20;99.90
2158;DHT22;41972;48.774;9.282;2023-04-15T00:25:50;3.20;99.90
2158;DHT22;41972;48.774;9.282;2023-04-15T00:28:16;3.10;99.90
2158;DHT22;41972;48.774;9.282;2023-04-15T00:30:42;3.00;99.90
2158;DHT22;41972;48.774;9.282;2023-04-15T00:33:08;3.00;99.90
2158;DHT22;41972;48.774;9.282;2023-04-15T00:35:34;3.10;99.90
2158;DHT22;41972;48.774;9.282;2023-04-15T00:38:01;3.10;99.90
2158;DHT22;41972;48.774;9.282;2023-04-15T00:40:26;3.10;99.90
2158;DHT22;41972;48.774;9.282;2023-04-15T00:42:52;3.00;99.90
2158;DHT22;41972;48.774;9.282;2023-04-15T00:45:17;2.80;99.90
2158;DHT22;41972;48.774;9.282;2023-04-15T00:47:43;2.80;99.90
2158;DHT22;41972;48.774;9.282;2023-04-15T00:50:12;2.90;99.90
2158;DHT22;41972;48.774;9.282;2023-04-15T00:52:38;3.10;99.90
2158;DHT22;41972;48.774;9.282;2023-04-15T00:55:05;3.30;99.90
2158;DHT22;41972;48.774;9.282;2023-04-15T00:57:31;3.30;99.90
2158;DHT22;41972;48.774;9.282;2023-04-15T00:59:57;3.30;99.90
2158;DHT22;41972;48.774;9.282;2023-04-15T01:02:23;3.30;99.90
2158;DHT22;41972;48.774;9.282;2023-04-15T01:04:49;3.30;99.90
2158;DHT22;41972;48.774;9.282;2023-04-15T01:07:15;3.30;99.90
2158;DHT22;41972;48.774;9.282;2023-04-15T01:09:41;3.10;99.90
2158;DHT22;41972;48.774;9.282;2023-04-15T01:12:07;3.00;99.90
2158;DHT22;41972;48.774;9.282;2023-04-15T01:14:34;3.00;99.90
2158;DHT22;41972;48.774;9.282;2023-04-15T01:17:01;2.90;99.90
2158;DHT22;41972;48.774;9.282;2023-04-15T01:19:27;2.80;99.90
2158;DHT22;41972;48.774;9.282;2023-04-15T01:21:53;2.70;99.90
2158;DHT22;41972;48.774;9.282;2023-04-15T01:24:19;2.60;99.90
2158;DHT22;41972;48.774;9.282;2023-04-15T01:26:45;2.50;99.90
2158;DHT22;41972;48.774;9.282;2023-04-15T01:29:11;2.50;99.90
2158;DHT22;41972;48.774;9.282;2023-04-15T01:31:37;2.40;99.90
2158;DHT22;41972;48.774;9.282;2023-04-15T01:34:03;2.40;99.90
2158;DHT22;41972;48.774;9.282;2023-04-15T01:36:29;2.30;99.90
2158;DHT22;41972;48.774;9.282;2023-04-15T01:38:55;2.30;99.90
2158;DHT22;41972;48.774;9.282;2023-04-15T01:41:25;2.30;99.90
2158;DHT22;41972;48.774;9.282;2023-04-15T01:43:51;2.30;99.90
2158;DHT22;41972;48.774;9.282;2023-04-15T01:46:17;2.20;99.90
2158;DHT22;41972;48.774;9.282;2023-04-15T01:48:43;2.20;99.90
2158;DHT22;41972;48.774;9.282;2023-04-15T01:51:08;2.30;99.90
2158;DHT22;41972;48.774;9.282;2023-04-15T01:53:34;2.30;99.90
2158;DHT22;41972;48.774;9.282;2023-04-15T01:56:00;2.30;99.90
2158;DHT22;41972;48.774;9.282;2023-04-15T01:58:25;2.30;99.90
2158;DHT22;41972;48.774;9.282;2023-04-15T02:00:51;2.20;99.90
2158;DHT22;41972;48.774;9.282;2023-04-15T02:03:17;2.10;99.90
2158;DHT22;41972;48.774;9.282;2023-04-15T02:05:43;2.10;99.90
2158;DHT22;41972;48.774;9.282;2023-04-15T02:08:08;2.20;99.90
2158;DHT22;41972;48.774;9.282;2023-04-15T02:10:34;2.00;99.90
2158;DHT22;41972;48.774;9.282;2023-04-15T02:13:00;2.00;99.90
2158;DHT22;41972;48.774;9.282;2023-04-15T02:15:26;1.90;99.90
2158;DHT22;41972;48.774;9.282;2023-04-15T02:17:51;1.80;99.90
2158;DHT22;41972;48.774;9.282;2023-04-15T02:20:19;1.90;99.90
2158;DHT22;41972;48.774;9.282;2023-04-15T02:22:47;1.80;99.90
2158;DHT22;41972;48.774;9.282;2023-04-15T02:25:13;1.80;99.90
2158;DHT22;41972;48.774;9.282;2023-04-15T02:27:38;1.90;99.90
2158;DHT22;41972;48.774;9.282;2023-04-15T02:30:05;1.90;99.90
2158;DHT22;41972;48.774;9.282;2023-04-15T02:32:31;1.90;99.90
2158;DHT22;41972;48.774;9.282;2023-04-15T02:35:01;1.80;99.90
2158;DHT22;41972;48.774;9.282;2023-04-15T02:37:29;1.70;99.90
2158;DHT22;41972;48.774;9.282;2023-04-15T02:39:56;1.60;99.90
2158;DHT22;41972;48.774;9.282;2023-04-15T02:42:21;1.60;99.90
2158;DHT22;41972;48.774;9.282;2023-04-15T02:44:47;1.60;99.90
2158;DHT22;41972;48.774;9.282;2023-04-15T02:47:12;1.60;99.90
2158;DHT22;41972;48.774;9.282;2023-04-15T02:49:39;1.60;99.90
2158;DHT22;41972;48.774;9.282;2023-04-15T02:52:05;1.50;99.90
2158;DHT22;41972;48.774;9.282;2023-04-15T02:54:31;1.50;99.90
2158;DHT22;41972;48.774;9.282;2023-04-15T02:56:58;1.70;99.90
2158;DHT22;41972;48.774;9.282;2023-04-15T02:59:24;1.70;99.90
2158;DHT22;41972;48.774;9.282;2023-04-15T03:01:49;1.70;99.90
2158;DHT22;41972;48.774;9.282;2023-04-15T03:04:15;1.60;99.90
2158;DHT22;41972;48.774;9.282;2023-04-15T03:06:40;1.60;99.90
2158;DHT22;41972;48.774;9.282;2023-04-15T03:09:06;1.60;99.90
2158;DHT22;41972;48.774;9.282;2023-04-15T03:11:32;1.60;99.90
2158;DHT22;41972;48.774;9.282;2023-04-15T03:13:57;1.70;99.90
2158;DHT22;41972;48.774;9.282;2023-04-15T03:16:24;1.70;99.90
2158;DHT22;41972;48.774;9.282;2023-04-15T03:18:50;1.80;99.90
2158;DHT22;41972;48.774;9.282;2023-04-15T03:21:15;1.70;99.90
2158;DHT22;41972;48.774;9.282;2023-04-15T03:23:41;1.80;99.90
2158;DHT22;41972;48.774;9.282;2023-04-15T03:26:07;1.80;99.90
2158;DHT22;41972;48.774;9.282;2023-04-15T03:28:32;1.90;99.90
2158;DHT22;41972;48.774;9.282;2023-04-15T03:30:58;1.90;99.90
2158;DHT22;41972;48.774;9.282;2023-04-15T03:33:24;1.90;99.90
2158;DHT22;41972;48.774;9.282;2023-04-15T03:35:50;2.00;99.90
2158;DHT22;41972;48.774;9.282;2023-04-15T03:38:17;2.10;99.90
2158;DHT22;41972;48.774;9.282;2023-04-15T03:40:42;2.10;99.90
2158;DHT22;41972;48.774;9.282;2023-04-15T03:43:08;2.10;99.90
2158;DHT22;41972;48.774;9.282;2023-04-15T03:45:34;2.10;99.90
2158;DHT22;41972;48.774;9.282;2023-04-15T03:48:00;2.20;99.90
2158;DHT22;41972;48.774;9.282;2023-04-15T03:50:25;2.10;99.90
2158;DHT22;41972;48.774;9.282;2023-04-15T03:52:52;2.10;99.90
2158;DHT22;41972;48.774;9.282;2023-04-15T03:55:17;2.20;99.90
2158;DHT22;41972;48.774;9.282;2023-04-15T03:57:44;2.20;99.90
2158;DHT22;41972;48.774;9.282;2023-04-15T04:00:10;2.20;99.90
2158;DHT22;41972;48.774;9.282;2023-04-15T04:02:35;2.20;99.90
2158;DHT22;41972;48.774;9.282;2023-04-15T04:05:01;2.20;99.90
2158;DHT22;41972;48.774;9.282;2023-04-15T04:07:26;2.20;99.90
2158;DHT22;41972;48.774;9.282;2023-04-15T04:09:52;2.00;99.90
2158;DHT22;41972;48.774;9.282;2023-04-15T04:12:18;2.10;99.90
2158;DHT22;41972;48.774;9.282;2023-04-15T04:14:43;2.20;99.90
2158;DHT22;41972;48.774;9.282;2023-04-15T04:17:09;2.20;99.90
2158;DHT22;41972;48.774;9.282;2023-04-15T04:19:34;2.10;99.90
2158;DHT22;41972;48.774;9.282;2023-04-15T04:22:00;2.20;99.90
2158;DHT22;41972;48.774;9.282;2023-04-15T04:24:26;2.20;99.90
2158;DHT22;41972;48.774;9.282;2023-04-15T04:26:51;2.20;99.90
2158;DHT22;41972;48.774;9.282;2023-04-15T04:29:17;2.20;99.90
2158;DHT22;41972;48.774;9.282;2023-04-15T04:31:42;2.30;99.90
2158;DHT22;41972;48.774;9.282;2023-04-15T04:34:08;2.20;99.90
2158;DHT22;41972;48.774;9.282;2023-04-15T04:36:33;2.20;99.90
2158;DHT22;41972;48.774;9.282;2023-04-15T04:38:59;2.10;99.90
2158;DHT22;41972;48.774;9.282;2023-04-15T04:41:25;2.10;99.90
2158;DHT22;41972;48.774;9.282;2023-04-15T04:43:51;2.10;99.90
2158;DHT22;41972;48.774;9.282;2023-04-15T04:46:16;2.10;99.90
2158;DHT22;41972;48.774;9.282;2023-04-15T04:48:42;2.10;99.90
2158;DHT22;41972;48.774;9.282;2023-04-15T04:51:07;1.80;99.90
2158;DHT22;41972;48.774;9.282;2023-04-15T04:53:33;1.90;99.90
2158;DHT22;41972;48.774;9.282;2023-04-15T04:55:59;1.90;99.90
2158;DHT22;41972;48.774;9.282;2023-04-15T04:58:25;2.10;99.90
2158;DHT22;41972;48.774;9.282;2023-04-15T05:00:50;2.10;99.90
2158;DHT22;41972;48.774;9.282;2023-04-15T05:03:16;2.30;99.90
2158;DHT22;41972;48.774;9.282;2023-04-15T05:05:41;2.30;99.90
2158;DHT22;41972;48.774;9.282;2023-04-15T05:08:07;2.40;99.90
2158;DHT22;41972;48.774;9.282;2023-04-15T05:10:33;2.50;99.90
2158;DHT22;41972;48.774;9.282;2023-04-15T05:12:58;2.70;99.90
2158;DHT22;41972;48.774;9.282;2023-04-15T05:15:24;2.60;99.90
2158;DHT22;41972;48.774;9.282;2023-04-15T05:17:49;2.50;99.90
2158;DHT22;41972;48.774;9.282;2023-04-15T05:20:15;2.50;99.90
2158;DHT22;41972;48.774;9.282;2023-04-15T05:22:42;2.60;99.90
2158;DHT22;41972;48.774;9.282;2023-04-15T05:25:08;2.90;99.90
2158;DHT22;41972;48.774;9.282;2023-04-15T05:27:34;3.00;99.90
2158;DHT22;41972;48.774;9.282;2023-04-15T05:29:59;3.20;99.90
2158;DHT22;41972;48.774;9.282;2023-04-15T05:32:25;3.40;99.90
2158;DHT22;41972;48.774;9.282;2023-04-15T05:34:51;3.30;99.90
2158;DHT22;41972;48.774;9.282;2023-04-15T05:37:16;3.40;99.90
2158;DHT22;41972;48.774;9.282;2023-04-15T05:39:45;3.10;99.90
2158;DHT22;41972;48.774;9.282;2023-04-15T05:42:10;3.30;99.90
2158;DHT22;41972;48.774;9.282;2023-04-15T05:44:36;3.60;99.90
2158;DHT22;41972;48.774;9.282;2023-04-15T05:47:02;3.90;99.90
2158;DHT22;41972;48.774;9.282;2023-04-15T05:49:28;4.00;99.90
2158;DHT22;41972;48.774;9.282;2023-04-15T05:51:54;4.10;99.90
2158;DHT22;41972;48.774;9.282;2023-04-15T05:54:19;4.70;99.90
2158;DHT22;41972;48.774;9.282;2023-04-15T05:56:47;5.10;99.90
2158;DHT22;41972;48.774;9.282;2023-04-15T05:59:13;5.50;99.90
2158;DHT22;41972;48.774;9.282;2023-04-15T06:01:38;6.10;99.90
2158;DHT22;41972;48.774;9.282;2023-04-15T06:04:04;6.30;99.90
2158;DHT22;41972;48.774;9.282;2023-04-15T06:06:29;6.70;99.90
2158;DHT22;41972;48.774;9.282;2023-04-15T06:08:56;7.20;99.90
2158;DHT22;41972;48.774;9.282;2023-04-15T06:11:22;7.90;99.90
2158;DHT22;41972;48.774;9.282;2023-04-15T06:13:48;8.70;99.90
2158;DHT22;41972;48.774;9.282;2023-04-15T06:16:13;9.90;99.90
2158;DHT22;41972;48.774;9.282;2023-04-15T06:18:39;10.10;99.90
2158;DHT22;41972;48.774;9.282;2023-04-15T06:21:04;10.30;99.90
2158;DHT22;41972;48.774;9.282;2023-04-15T06:23:34;10.10;99.90
2158;DHT22;41972;48.774;9.282;2023-04-15T06:26:00;9.70;99.90
2158;DHT22;41972;48.774;9.282;2023-04-15T06:28:26;11.60;99.90
2158;DHT22;41972;48.774;9.282;2023-04-15T06:30:52;11.30;99.90
2158;DHT22;41972;48.774;9.282;2023-04-15T06:33:18;11.40;99.90
2158;DHT22;41972;48.774;9.282;2023-04-15T06:35:43;10.50;99.90
2158;DHT22;41972;48.774;9.282;2023-04-15T06:38:09;10.90;99.90
2158;DHT22;41972;48.774;9.282;2023-04-15T06:40:34;11.90;99.90
2158;DHT22;41972;48.774;9.282;2023-04-15T06:43:00;13.20;99.90
2158;DHT22;41972;48.774;9.282;2023-04-15T06:45:27;13.40;99.90
2158;DHT22;41972;48.774;9.282;2023-04-15T06:47:52;11.90;99.90
2158;DHT22;41972;48.774;9.282;2023-04-15T06:50:18;12.00;99.90
2158;DHT22;41972;48.774;9.282;2023-04-15T06:52:43;13.10;99.90
2158;DHT22;41972;48.774;9.282;2023-04-15T06:55:09;12.80;99.90
2158;DHT22;41972;48.774;9.282;2023-04-15T06:57:34;14.10;99.90
2158;DHT22;41972;48.774;9.282;2023-04-15T07:00:00;14.30;99.90
2158;DHT22;41972;48.774;9.282;2023-04-15T07:02:26;14.40;99.90
2158;DHT22;41972;48.774;9.282;2023-04-15T07:04:51;12.60;99.90
2158;DHT22;41972;48.774;9.282;2023-04-15T07:07:17;11.10;99.90
2158;DHT22;41972;48.774;9.282;2023-04-15T07:09:43;10.50;99.90
2158;DHT22;41972;48.774;9.282;2023-04-15T07:12:08;11.10;99.90
2158;DHT22;41972;48.774;9.282;2023-04-15T07:14:34;10.00;99.90
2158;DHT22;41972;48.774;9.282;2023-04-15T07:17:00;10.00;99.90
2158;DHT22;41972;48.774;9.282;2023-04-15T07:19:26;9.10;99.90
2158;DHT22;41972;48.774;9.282;2023-04-15T07:21:53;8.00;99.90
2158;DHT22;41972;48.774;9.282;2023-04-15T07:24:18;7.20;99.90
2158;DHT22;41972;48.774;9.282;2023-04-15T07:26:45;7.60;99.90
2158;DHT22;41972;48.774;9.282;2023-04-15T07:29:10;8.00;99.90
2158;DHT22;41972;48.774;9.282;2023-04-15T07:31:36;8.00;99.90
2158;DHT22;41972;48.774;9.282;2023-04-15T07:34:02;8.10;99.90
2158;DHT22;41972;48.774;9.282;2023-04-15T07:36:28;8.70;99.90
2158;DHT22;41972;48.774;9.282;2023-04-15T07:38:54;9.50;99.90
2158;DHT22;41972;48.774;9.282;2023-04-15T07:41:20;11.30;99.90
2158;DHT22;41972;48.774;9.282;2023-04-15T07:43:46;11.80;99.90
2158;DHT22;41972;48.774;9.282;2023-04-15T07:46:13;12.50;99.90
2158;DHT22;41972;48.774;9.282;2023-04-15T07:48:38;12.00;99.90
2158;DHT22;41972;48.774;9.282;2023-04-15T07:51:04;12.60;99.90
2158;DHT22;41972;48.774;9.282;2023-04-15T07:53:30;14.60;99.90
2158;DHT22;41972;48.774;9.282;2023-04-15T07:55:57;13.50;99.90
2158;DHT22;41972;48.774;9.282;2023-04-15T07:58:23;13.10;99.90
2158;DHT22;41972;48.774;9.282;2023-04-15T08:00:48;16.60;99.90
2158;DHT22;41972;48.774;9.282;2023-04-15T08:03:14;17.70;99.90
2158;DHT22;41972;48.774;9.282;2023-04-15T08:05:39;19.20;99.90
2158;DHT22;41972;48.774;9.282;2023-04-15T08:08:05;21.70;99.90
2158;DHT22;41972;48.774;9.282;2023-04-15T08:10:31;21.10;42.70
2158;DHT22;41972;48.774;9.282;2023-04-15T08:12:57;20.50;36.90
2158;DHT22;41972;48.774;9.282;2023-04-15T08:15:22;21.20;26.10
2158;DHT22;41972;48.774;9.282;2023-04-15T08:17:48;20.50;28.70
2158;DHT22;41972;48.774;9.282;2023-04-15T08:20:13;20.00;33.80
2158;DHT22;41972;48.774;9.282;2023-04-15T08:22:39;23.80;26.70
2158;DHT22;41972;48.774;9.282;2023-04-15T08:25:06;26.80;12.60
2158;DHT22;41972;48.774;9.282;2023-04-15T08:27:31;20.80;3.20
2158;DHT22;41972;48.774;9.282;2023-04-15T08:29:57;21.40;11.90
2158;DHT22;41972;48.774;9.282;2023-04-15T08:32:22;19.70;10.30
2158;DHT22;41972;48.774;9.282;2023-04-15T08:34:50;20.10;15.40
2158;DHT22;41972;48.774;9.282;2023-04-15T08:37:15;23.80;5.60
2158;DHT22;41972;48.774;9.282;2023-04-15T08:39:41;24.40;4.30
2158;DHT22;41972;48.774;9.282;2023-04-15T08:42:11;27.10;1.70
2158;DHT22;41972;48.774;9.282;2023-04-15T08:44:41;25.40;1.00
2158;DHT22;41972;48.774;9.282;2023-04-15T08:47:08;24.40;1.00
2158;DHT22;41972;48.774;9.282;2023-04-15T08:49:38;23.40;1.00
2158;DHT22;41972;48.774;9.282;2023-04-15T08:52:05;26.30;1.00
2158;DHT22;41972;48.774;9.282;2023-04-15T08:54:31;27.50;1.00
2158;DHT22;41972;48.774;9.282;2023-04-15T08:56:57;26.90;1.00
2158;DHT22;41972;48.774;9.282;2023-04-15T08:59:23;28.90;1.00
2158;DHT22;41972;48.774;9.282;2023-04-15T09:01:49;27.50;1.00
2158;DHT22;41972;48.774;9.282;2023-04-15T09:04:16;28.40;1.00
2158;DHT22;41972;48.774;9.282;2023-04-15T09:06:42;21.20;1.00
2158;DHT22;41972;48.774;9.282;2023-04-15T09:09:08;22.50;1.00
2158;DHT22;41972;48.774;9.282;2023-04-15T09:11:34;22.50;1.00
2158;DHT22;41972;48.774;9.282;2023-04-15T09:14:00;21.10;1.00
2158;DHT22;41972;48.774;9.282;2023-04-15T09:16:26;21.80;1.00
2158;DHT22;41972;48.774;9.282;2023-04-15T09:18:52;21.80;1.00
2158;DHT22;41972;48.774;9.282;2023-04-15T09:21:19;20.10;1.00
2158;DHT22;41972;48.774;9.282;2023-04-15T09:23:59;18.60;1.00
2158;DHT22;41972;48.774;9.282;2023-04-15T09:29:08;21.60;1.00
2158;DHT22;41972;48.774;9.282;2023-04-15T09:31:36;19.90;1.00
2158;DHT22;41972;48.774;9.282;2023-04-15T09:34:02;18.50;1.00
2158;DHT22;41972;48.774;9.282;2023-04-15T09:36:27;18.70;1.00
2158;DHT22;41972;48.774;9.282;2023-04-15T09:38:56;18.90;1.00
2158;DHT22;41972;48.774;9.282;2023-04-15T09:41:21;17.60;1.00
2158;DHT22;41972;48.774;9.282;2023-04-15T09:43:47;19.00;1.00
2158;DHT22;41972;48.774;9.282;2023-04-15T09:46:13;17.40;1.00
2158;DHT22;41972;48.774;9.282;2023-04-15T09:48:38;17.30;1.00
2158;DHT22;41972;48.774;9.282;2023-04-15T09:51:04;16.50;1.00
2158;DHT22;41972;48.774;9.282;2023-04-15T09:53:33;15.70;1.00
2158;DHT22;41972;48.774;9.282;2023-04-15T09:55:59;15.90;1.00
2158;DHT22;41972;48.774;9.282;2023-04-15T09:58:31;15.80;1.00
2158;DHT22;41972;48.774;9.282;2023-04-15T10:00:58;15.80;1.00
2158;DHT22;41972;48.774;9.282;2023-04-15T10:03:27;14.80;1.20
2158;DHT22;41972;48.774;9.282;2023-04-15T10:05:54;14.90;1.00
2158;DHT22;41972;48.774;9.282;2023-04-15T10:08:29;15.50;1.00
2158;DHT22;41972;48.774;9.282;2023-04-15T10:10:55;14.50;1.00
2158;DHT22;41972;48.774;9.282;2023-04-15T10:13:23;14.10;1.90
2158;DHT22;41972;48.774;9.282;2023-04-15T10:16:00;14.20;2.40
2158;DHT22;41972;48.774;9.282;2023-04-15T10:18:27;14.40;2.10
2158;DHT22;41972;48.774;9.282;2023-04-15T10:20:54;14.10;3.80
2158;DHT22;41972;48.774;9.282;2023-04-15T10:23:21;14.60;2.10
2158;DHT22;41972;48.774;9.282;2023-04-15T10:25:48;15.10;4.60
2158;DHT22;41972;48.774;9.282;2023-04-15T10:28:15;16.60;1.00
2158;DHT22;41972;48.774;9.282;2023-04-15T10:30:42;18.30;1.00
2158;DHT22;41972;48.774;9.282;2023-04-15T10:33:08;18.40;1.00
2158;DHT22;41972;48.774;9.282;2023-04-15T10:35:35;18.10;1.00
2158;DHT22;41972;48.774;9.282;2023-04-15T10:38:01;17.00;1.00
2158;DHT22;41972;48.774;9.282;2023-04-15T10:40:29;16.20;1.00
2158;DHT22;41972;48.774;9.282;2023-04-15T10:43:00;16.40;1.00
2158;DHT22;41972;48.774;9.282;2023-04-15T10:45:28;15.60;1.00
2158;DHT22;41972;48.774;9.282;2023-04-15T10:47:57;14.30;2.40
2158;DHT22;41972;48.774;9.282;2023-04-15T10:50:25;14.70;1.50
2158;DHT22;41972;48.774;9.282;2023-04-15T10:52:51;15.90;1.00
2158;DHT22;41972;48.774;9.282;2023-04-15T10:55:24;16.10;1.00
2158;DHT22;41972;48.774;9.282;2023-04-15T10:57:57;16.00;1.00
2158;DHT22;41972;48.774;9.282;2023-04-15T11:00:31;16.10;1.00
2158;DHT22;41972;48.774;9.282;2023-04-15T11:03:07;16.20;1.00
2158;DHT22;41972;48.774;9.282;2023-04-15T11:05:48;15.70;1.00
2158;DHT22;41972;48.774;9.282;2023-04-15T11:08:14;16.10;1.00
2158;DHT22;41972;48.774;9.282;2023-04-15T11:13:19;14.40;1.00
2158;DHT22;41972;48.774;9.282;2023-04-15T11:15:47;14.50;1.00
2158;DHT22;41972;48.774;9.282;2023-04-15T11:18:21;14.80;1.00
2158;DHT22;41972;48.774;9.282;2023-04-15T11:20:48;14.50;1.00
2158;DHT22;41972;48.774;9.282;2023-04-15T11:23:27;14.40;1.00
2158;DHT22;41972;48.774;9.282;2023-04-15T11:25:54;14.30;1.30
2158;DHT22;41972;48.774;9.282;2023-04-15T11:28:25;13.90;2.80
2158;DHT22;41972;48.774;9.282;2023-04-15T11:30:51;14.20;3.20
2158;DHT22;41972;48.774;9.282;2023-04-15T11:33:16;15.10;3.20
2158;DHT22;41972;48.774;9.282;2023-04-15T11:35:42;14.80;1.30
2158;DHT22;41972;48.774;9.282;2023-04-15T11:38:10;14.30;4.40
2158;DHT22;41972;48.774;9.282;2023-04-15T11:40:37;14.60;1.00
2158;DHT22;41972;48.774;9.282;2023-04-15T11:45:37;15.10;3.60
2158;DHT22;41972;48.774;9.282;2023-04-15T11:48:10;14.60;4.20
2158;DHT22;41972;48.774;9.282;2023-04-15T11:50:38;13.90;4.10
2158;DHT22;41972;48.774;9.282;2023-04-15T11:53:07;13.20;6.80
2158;DHT22;41972;48.774;9.282;2023-04-15T11:55:46;12.90;10.20
2158;DHT22;41972;48.774;9.282;2023-04-15T11:58:15;12.60;16.00
2158;DHT22;41972;48.774;9.282;2023-04-15T12:00:46;12.50;17.80
2158;DHT22;41972;48.774;9.282;2023-04-15T12:03:29;12.30;20.60
2158;DHT22;41972;48.774;9.282;2023-04-15T12:06:21;12.60;16.10
2158;DHT22;41972;48.774;9.282;2023-04-15T12:08:57;12.70;18.50
2158;DHT22;41972;48.774;9.282;2023-04-15T12:16:35;14.10;15.40
2158;DHT22;41972;48.774;9.282;2023-04-15T12:19:05;14.40;14.70
2158;DHT22;41972;48.774;9.282;2023-04-15T12:21:35;13.50;15.40
2158;DHT22;41972;48.774;9.282;2023-04-15T12:24:03;13.50;14.50
2158;DHT22;41972;48.774;9.282;2023-04-15T12:26:53;13.40;12.40
2158;DHT22;41972;48.774;9.282;2023-04-15T12:29:23;13.00;11.90
2158;DHT22;41972;48.774;9.282;2023-04-15T12:31:54;12.70;12.70
2158;DHT22;41972;48.774;9.282;2023-04-15T12:36:52;11.90;23.80
2158;DHT22;41972;48.774;9.282;2023-04-15T12:39:21;11.10;34.20
2158;DHT22;41972;48.774;9.282;2023-04-15T12:41:47;11.20;58.10
2158;DHT22;41972;48.774;9.282;2023-04-15T12:44:13;10.00;97.10
2158;DHT22;41972;48.774;9.282;2023-04-15T12:46:38;9.80;99.90
2158;DHT22;41972;48.774;9.282;2023-04-15T12:49:04;10.90;99.90
2158;DHT22;41972;48.774;9.282;2023-04-15T12:51:30;9.20;99.90
2158;DHT22;41972;48.774;9.282;2023-04-15T12:53:56;9.30;99.90
2158;DHT22;41972;48.774;9.282;2023-04-15T12:56:22;9.20;99.90
2158;DHT22;41972;48.774;9.282;2023-04-15T12:58:48;9.00;99.90
2158;DHT22;41972;48.774;9.282;2023-04-15T13:01:13;9.00;99.90
2158;DHT22;41972;48.774;9.282;2023-04-15T13:03:39;9.20;99.90
2158;DHT22;41972;48.774;9.282;2023-04-15T13:06:06;9.30;99.90
2158;DHT22;41972;48.774;9.282;2023-04-15T13:08:32;9.40;99.90
2158;DHT22;41972;48.774;9.282;2023-04-15T13:10:58;9.80;99.90
2158;DHT22;41972;48.774;9.282;2023-04-15T13:13:23;10.10;99.90
2158;DHT22;41972;48.774;9.282;2023-04-15T13:15:49;10.30;99.90
2158;DHT22;41972;48.774;9.282;2023-04-15T13:18:15;10.40;99.90
2158;DHT22;41972;48.774;9.282;2023-04-15T13:20:40;10.60;99.90
2158;DHT22;41972;48.774;9.282;2023-04-15T13:23:06;10.80;99.90
2158;DHT22;41972;48.774;9.282;2023-04-15T13:25:32;11.10;99.90
2158;DHT22;41972;48.774;9.282;2023-04-15T13:27:57;11.20;99.90
2158;DHT22;41972;48.774;9.282;2023-04-15T13:30:23;11.40;99.90
2158;DHT22;41972;48.774;9.282;2023-04-15T13:32:49;11.40;99.90
2158;DHT22;41972;48.774;9.282;2023-04-15T13:35:15;11.40;99.90
2158;DHT22;41972;48.774;9.282;2023-04-15T13:37:41;12.40;99.90
2158;DHT22;41972;48.774;9.282;2023-04-15T13:40:07;11.40;99.90
2158;DHT22;41972;48.774;9.282;2023-04-15T13:42:32;11.50;99.90
2158;DHT22;41972;48.774;9.282;2023-04-15T13:44:58;11.80;99.90
2158;DHT22;41972;48.774;9.282;2023-04-15T13:47:24;11.80;99.90
2158;DHT22;41972;48.774;9.282;2023-04-15T13:49:49;12.10;99.90
2158;DHT22;41972;48.774;9.282;2023-04-15T13:52:15;11.80;99.90
2158;DHT22;41972;48.774;9.282;2023-04-15T13:54:41;12.20;99.90
2158;DHT22;41972;48.774;9.282;2023-04-15T13:57:06;12.30;99.90
2158;DHT22;41972;48.774;9.282;2023-04-15T13:59:33;12.20;99.90
2158;DHT22;41972;48.774;9.282;2023-04-15T14:01:59;11.90;59.20
2158;DHT22;41972;48.774;9.282;2023-04-15T14:04:24;11.60;57.70
2158;DHT22;41972;48.774;9.282;2023-04-15T14:06:50;11.50;68.70
2158;DHT22;41972;48.774;9.282;2023-04-15T14:09:16;11.40;57.70
2158;DHT22;41972;48.774;9.282;2023-04-15T14:11:41;11.30;59.00
2158;DHT22;41972;48.774;9.282;2023-04-15T14:14:07;11.40;62.40
2158;DHT22;41972;48.774;9.282;2023-04-15T14:16:32;12.20;62.70
2158;DHT22;41972;48.774;9.282;2023-04-15T14:18:58;11.50;60.00
2158;DHT22;41972;48.774;9.282;2023-04-15T14:21:24;11.60;59.70
2158;DHT22;41972;48.774;9.282;2023-04-15T14:23:52;12.00;60.40
2158;DHT22;41972;48.774;9.282;2023-04-15T14:26:17;12.20;58.00
2158;DHT22;41972;48.774;9.282;2023-04-15T14:28:43;12.20;58.40
2158;DHT22;41972;48.774;9.282;2023-04-15T14:31:09;11.80;58.00
2158;DHT22;41972;48.774;9.282;2023-04-15T14:33:35;11.80;58.20
2158;DHT22;41972;48.774;9.282;2023-04-15T14:36:01;11.50;53.80
2158;DHT22;41972;48.774;9.282;2023-04-15T14:38:26;11.60;56.30
2158;DHT22;41972;48.774;9.282;2023-04-15T14:40:52;11.50;58.10
2158;DHT22;41972;48.774;9.282;2023-04-15T14:43:20;11.50;57.80
2158;DHT22;41972;48.774;9.282;2023-04-15T14:45:46;11.50;56.70
2158;DHT22;41972;48.774;9.282;2023-04-15T14:48:12;11.30;55.90
2158;DHT22;41972;48.774;9.282;2023-04-15T14:50:38;11.20;57.50
2158;DHT22;41972;48.774;9.282;2023-04-15T14:53:04;11.00;58.10
2158;DHT22;41972;48.774;9.282;2023-04-15T14:55:29;11.10;59.90
2158;DHT22;41972;48.774;9.282;2023-04-15T14:57:55;11.00;60.90
2158;DHT22;41972;48.774;9.282;2023-04-15T15:00:20;10.90;58.70
2158;DHT22;41972;48.774;9.282;2023-04-15T15:02:46;10.70;61.90
2158;DHT22;41972;48.774;9.282;2023-04-15T15:05:12;10.50;61.90
2158;DHT22;41972;48.774;9.282;2023-04-15T15:07:38;10.60;63.50
2158;DHT22;41972;48.774;9.282;2023-04-15T15:10:05;10.60;64.50
2158;DHT22;41972;48.774;9.282;2023-04-15T15:12:31;10.50;64.20
2158;DHT22;41972;48.774;9.282;2023-04-15T15:14:57;10.50;65.50
2158;DHT22;41972;48.774;9.282;2023-04-15T15:17:22;10.40;67.60
2158;DHT22;41972;48.774;9.282;2023-04-15T15:19:48;10.40;69.20
2158;DHT22;41972;48.774;9.282;2023-04-15T15:22:14;10.20;69.30
2158;DHT22;41972;48.774;9.282;2023-04-15T15:24:40;10.10;70.80
2158;DHT22;41972;48.774;9.282;2023-04-15T15:27:05;10.00;72.50
2158;DHT22;41972;48.774;9.282;2023-04-15T15:29:31;10.00;73.80
2158;DHT22;41972;48.774;9.282;2023-04-15T15:31:56;10.00;73.40
2158;DHT22;41972;48.774;9.282;2023-04-15T15:34:22;10.80;77.20
2158;DHT22;41972;48.774;9.282;2023-04-15T15:36:47;10.00;77.80
2158;DHT22;41972;48.774;9.282;2023-04-15T15:39:13;10.00;77.90
2158;DHT22;41972;48.774;9.282;2023-04-15T15:41:38;9.90;84.20
2158;DHT22;41972;48.774;9.282;2023-04-15T15:44:04;10.00;85.50
2158;DHT22;41972;48.774;9.282;2023-04-15T15:46:29;9.70;90.00
2158;DHT22;41972;48.774;9.282;2023-04-15T15:48:56;9.80;90.60
2158;DHT22;41972;48.774;9.282;2023-04-15T15:51:22;9.80;91.20
2158;DHT22;41972;48.774;9.282;2023-04-15T15:53:48;9.70;92.50
2158;DHT22;41972;48.774;9.282;2023-04-15T15:56:14;9.70;91.30
2158;DHT22;41972;48.774;9.282;2023-04-15T15:58:40;9.80;90.60
2158;DHT22;41972;48.774;9.282;2023-04-15T16:01:06;9.70;92.50
2158;DHT22;41972;48.774;9.282;2023-04-15T16:03:31;10.00;92.40
2158;DHT22;41972;48.774;9.282;2023-04-15T16:05:57;10.00;94.80
2158;DHT22;41972;48.774;9.282;2023-04-15T16:08:22;9.80;96.30